createdAt,value
2019-04-04T00:00:11.789Z,10.57
2019-04-04T00:02:41.229Z,11.63
2019-04-04T00:05:10.596Z,12.20
2019-04-04T00:07:39.954Z,11.70
2019-04-04T00:10:09.315Z,11.67
2019-04-04T00:12:39.095Z,11.33
2019-04-04T00:15:08.974Z,10.90
2019-04-04T00:17:38.246Z,11.37
2019-04-04T00:20:07.710Z,11.60
2019-04-04T00:22:36.973Z,11.87
2019-04-04T00:25:09.753Z,11.83
2019-04-04T00:27:37.483Z,11.17
2019-04-04T00:30:07.004Z,10.97
2019-04-04T00:32:36.287Z,11.03
2019-04-04T00:35:05.792Z,10.30
2019-04-04T00:37:36.175Z,10.13
2019-04-04T00:40:10.874Z,10.90
2019-04-04T00:42:39.606Z,11.00
2019-04-04T00:45:09.314Z,10.73
2019-04-04T00:47:38.582Z,10.40
2019-04-04T00:50:08.152Z,10.10
2019-04-04T00:52:40.554Z,10.37
2019-04-04T00:55:08.965Z,10.60
2019-04-04T00:57:38.248Z,10.07
2019-04-04T01:00:08.729Z,10.70
2019-04-04T01:02:38.018Z,10.47
2019-04-04T01:05:07.430Z,10.37
2019-04-04T01:07:36.718Z,10.50
2019-04-04T01:10:08.737Z,10.17
2019-04-04T01:12:38.017Z,10.03
2019-04-04T01:15:07.928Z,10.60
2019-04-04T01:17:37.210Z,10.93
2019-04-04T01:20:08.112Z,10.63
2019-04-04T01:22:37.469Z,10.67
2019-04-04T01:25:07.608Z,11.30
2019-04-04T01:27:37.545Z,10.57
2019-04-04T01:30:07.860Z,10.90
2019-04-04T01:32:37.141Z,11.37
2019-04-04T01:35:09.807Z,11.30
2019-04-04T01:37:39.176Z,11.43
2019-04-04T01:40:08.681Z,10.17
2019-04-04T01:42:38.869Z,10.80
2019-04-04T01:45:08.749Z,11.30
2019-04-04T01:47:38.031Z,11.30
2019-04-04T01:50:08.423Z,11.27
2019-04-04T01:52:37.698Z,10.57
2019-04-04T01:55:06.965Z,11.10
2019-04-04T01:57:38.577Z,11.27
2019-04-04T02:00:09.642Z,10.27
2019-04-04T02:02:38.925Z,10.80
2019-04-04T02:05:09.058Z,11.30
2019-04-04T02:07:38.344Z,10.70
2019-04-04T02:10:08.829Z,11.27
2019-04-04T02:12:39.183Z,10.73
2019-04-04T02:15:13.956Z,11.47
2019-04-04T02:17:41.483Z,11.60
2019-04-04T02:20:10.846Z,11.90
2019-04-04T02:22:40.133Z,11.17
2019-04-04T02:25:09.400Z,11.90
2019-04-04T02:27:38.700Z,11.40
2019-04-04T02:30:08.888Z,11.57
2019-04-04T02:32:38.222Z,12.20
2019-04-04T02:35:10.154Z,11.87
2019-04-04T02:37:38.578Z,12.43
2019-04-04T02:40:09.067Z,12.63
2019-04-04T02:42:39.370Z,12.43
2019-04-04T02:45:09.287Z,12.97
2019-04-04T02:47:38.566Z,12.03
2019-04-04T02:50:08.197Z,11.73
2019-04-04T02:52:37.486Z,12.03
2019-04-04T02:55:06.997Z,12.23
2019-04-04T02:57:38.716Z,12.13
2019-04-04T03:00:07.715Z,13.20
2019-04-04T03:02:37.126Z,12.40
2019-04-04T03:05:06.898Z,12.80
2019-04-04T03:07:36.247Z,12.53
2019-04-04T03:10:07.024Z,12.47
2019-04-04T03:12:36.373Z,11.83
2019-04-04T03:15:10.047Z,11.40
2019-04-04T03:17:39.617Z,11.37
2019-04-04T03:20:09.122Z,12.03
2019-04-04T03:22:38.419Z,11.23
2019-04-04T03:25:07.753Z,10.93
2019-04-04T03:27:37.035Z,12.33
2019-04-04T03:30:13.319Z,10.47
2019-04-04T03:32:39.086Z,11.03
2019-04-04T03:35:09.989Z,12.10
2019-04-04T03:37:41.106Z,11.03
2019-04-04T03:40:10.305Z,11.00
2019-04-04T03:42:43.836Z,10.90
2019-04-04T03:45:10.618Z,11.30
2019-04-04T03:47:43.276Z,11.37
2019-04-04T03:50:10.888Z,10.63
2019-04-04T03:52:43.127Z,10.73
2019-04-04T03:55:11.231Z,11.07
2019-04-04T03:57:40.515Z,10.43
2019-04-04T04:00:10.548Z,11.47
2019-04-04T04:02:40.130Z,10.60
2019-04-04T04:05:33.584Z,10.23
2019-04-04T04:07:59.451Z,10.47
2019-04-04T04:10:32.161Z,10.03
2019-04-04T04:12:59.970Z,10.43
2019-04-04T04:15:30.576Z,10.73
2019-04-04T04:18:00.081Z,10.67
2019-04-04T04:20:29.596Z,10.47
2019-04-04T04:22:59.622Z,10.80
2019-04-04T04:25:28.994Z,9.73
2019-04-04T04:27:58.308Z,10.33
2019-04-04T04:30:27.601Z,9.90
2019-04-04T04:32:57.470Z,11.43
2019-04-04T04:35:26.901Z,10.33
2019-04-04T04:37:56.194Z,10.80
2019-04-04T04:40:25.520Z,10.73
2019-04-04T04:42:59.768Z,10.10
2019-04-04T04:45:26.811Z,11.60
2019-04-04T04:47:57.296Z,11.13
2019-04-04T04:50:26.796Z,11.27
2019-04-04T04:52:56.106Z,11.80
2019-04-04T04:55:27.236Z,12.30
2019-04-04T04:57:56.723Z,12.00
2019-04-04T05:00:27.902Z,11.77
2019-04-04T05:02:57.486Z,11.27
2019-04-04T05:05:26.785Z,12.73
2019-04-04T05:07:56.078Z,11.93
2019-04-04T05:10:25.486Z,12.17
2019-04-04T05:12:54.817Z,11.57
2019-04-04T05:15:24.212Z,11.87
2019-04-04T05:17:53.515Z,11.57
2019-04-04T05:20:24.894Z,12.60
2019-04-04T05:22:53.824Z,11.97
2019-04-04T05:25:23.134Z,12.67
2019-04-04T05:27:52.466Z,11.90
2019-04-04T05:30:21.798Z,11.30
2019-04-04T05:32:53.151Z,12.10
2019-04-04T05:35:22.133Z,11.67
2019-04-04T05:37:51.496Z,12.73
2019-04-04T05:40:23.264Z,11.60
2019-04-04T05:42:51.853Z,11.20
2019-04-04T05:45:21.154Z,11.70
2019-04-04T05:47:50.471Z,11.73
2019-04-04T05:50:19.782Z,12.83
2019-04-04T05:52:49.116Z,11.93
2019-04-04T05:55:18.457Z,12.37
2019-04-04T05:57:48.980Z,11.17
2019-04-04T06:00:18.878Z,12.13
2019-04-04T06:02:48.177Z,12.20
2019-04-04T06:05:17.489Z,11.10
2019-04-04T06:07:46.846Z,11.80
2019-04-04T06:10:18.576Z,11.77
2019-04-04T06:12:47.618Z,12.10
2019-04-04T06:15:16.933Z,12.57
2019-04-04T06:17:46.242Z,11.70
2019-04-04T06:20:15.855Z,11.00
2019-04-04T06:22:45.204Z,12.63
2019-04-04T06:25:14.539Z,12.37
2019-04-04T06:27:43.870Z,12.53
2019-04-04T06:30:13.341Z,11.83
2019-04-04T06:32:42.653Z,12.10
2019-04-04T06:35:13.207Z,12.10
2019-04-04T06:37:45.865Z,12.03
2019-04-04T06:40:14.304Z,11.23
2019-04-04T06:42:43.599Z,12.40
2019-04-04T06:45:15.109Z,11.83
2019-04-04T06:47:43.966Z,12.13
2019-04-04T06:50:13.634Z,10.87
2019-04-04T06:52:42.937Z,11.40
2019-04-04T06:55:12.401Z,11.33
2019-04-04T06:57:42.253Z,10.53
2019-04-04T07:00:15.519Z,11.17
2019-04-04T07:02:43.209Z,12.30
2019-04-04T07:05:12.659Z,10.43
2019-04-04T07:07:43.936Z,9.90
2019-04-04T07:10:13.306Z,11.03
2019-04-04T07:12:42.601Z,10.77
2019-04-04T07:15:15.598Z,10.83
2019-04-04T07:17:43.171Z,11.17
2019-04-04T07:20:12.742Z,9.90
2019-04-04T07:22:42.040Z,10.03
2019-04-04T07:25:11.421Z,10.70
2019-04-04T07:27:40.712Z,9.83
2019-04-04T07:30:11.756Z,10.03
2019-04-04T07:32:41.737Z,9.23
2019-04-04T07:35:11.303Z,9.70
2019-04-04T07:37:40.584Z,9.87
2019-04-04T07:40:10.070Z,9.57
2019-04-04T07:42:40.262Z,10.13
2019-04-04T07:45:10.211Z,10.27
2019-04-04T07:47:40.575Z,9.97
2019-04-04T07:50:10.014Z,11.17
2019-04-04T07:52:39.302Z,9.87
2019-04-04T07:55:10.930Z,10.07
2019-04-04T07:57:39.906Z,10.20
2019-04-04T08:00:09.466Z,10.57
2019-04-04T08:02:38.734Z,9.03
2019-04-04T08:05:09.173Z,8.93
2019-04-04T08:07:38.457Z,9.13
2019-04-04T08:10:19.925Z,9.37
2019-04-04T08:12:39.273Z,8.93
2019-04-04T08:15:08.808Z,9.67
2019-04-04T08:17:38.128Z,10.03
2019-04-04T08:20:08.254Z,9.70
2019-04-04T08:22:39.728Z,9.53
2019-04-04T08:25:08.799Z,11.03
2019-04-04T08:27:38.087Z,9.50
2019-04-04T08:30:07.932Z,9.37
2019-04-04T08:32:38.195Z,9.93
2019-04-04T08:35:07.643Z,10.23
2019-04-04T08:37:36.958Z,9.57
2019-04-04T08:40:07.597Z,10.00
2019-04-04T08:42:36.906Z,8.87
2019-04-04T08:45:07.677Z,9.33
2019-04-04T08:47:36.962Z,9.37
2019-04-04T08:50:06.702Z,9.53
2019-04-04T08:52:35.989Z,9.63
2019-04-04T08:55:06.922Z,9.03
2019-04-04T08:57:36.212Z,9.03
2019-04-04T09:00:08.936Z,9.80
2019-04-04T09:02:38.302Z,8.93
2019-04-04T09:05:12.190Z,9.63
2019-04-04T09:07:38.665Z,9.00
2019-04-04T09:10:08.611Z,9.57
2019-04-04T09:12:37.926Z,8.97
2019-04-04T09:15:08.090Z,9.10
2019-04-04T09:17:37.459Z,9.27
2019-04-04T09:20:09.566Z,8.77
2019-04-04T09:22:40.748Z,8.97
2019-04-04T09:25:10.723Z,7.90
2019-04-04T09:27:40.478Z,8.90
2019-04-04T09:30:11.014Z,8.70
2019-04-04T09:32:40.379Z,9.13
2019-04-04T09:35:09.915Z,9.13
2019-04-04T09:37:39.223Z,10.13
2019-04-04T09:40:08.858Z,8.23
2019-04-04T09:42:38.182Z,8.47
2019-04-04T09:45:09.076Z,7.83
2019-04-04T09:47:38.379Z,8.43
2019-04-04T09:50:09.197Z,8.00
2019-04-04T09:52:38.499Z,7.87
2019-04-04T09:55:08.537Z,7.90
2019-04-04T09:57:37.837Z,6.87
2019-04-04T10:00:15.622Z,6.97
2019-04-04T10:02:45.061Z,7.10
2019-04-04T10:05:14.911Z,7.67
2019-04-04T10:07:45.180Z,7.67
2019-04-04T10:10:15.213Z,6.93
2019-04-04T10:12:44.540Z,8.40
2019-04-04T10:15:14.372Z,8.63
2019-04-04T10:17:44.122Z,8.47
2019-04-04T10:20:13.756Z,8.17
2019-04-04T10:22:43.071Z,8.40
2019-04-04T10:25:12.429Z,8.67
2019-04-04T10:27:41.753Z,8.90
2019-04-04T10:30:11.893Z,9.13
2019-04-04T10:32:41.204Z,9.40
2019-04-04T10:35:11.726Z,8.97
2019-04-04T10:37:41.035Z,8.83
2019-04-04T10:40:10.596Z,8.43
2019-04-04T10:42:39.900Z,8.80
2019-04-04T10:45:09.528Z,7.50
2019-04-04T10:47:38.823Z,7.80
2019-04-04T10:50:08.556Z,7.67
2019-04-04T10:52:37.871Z,6.53
2019-04-04T10:55:07.399Z,7.93
2019-04-04T10:57:36.718Z,8.67
2019-04-04T11:00:09.797Z,7.93
2019-04-04T11:02:39.112Z,7.70
2019-04-04T11:05:09.478Z,6.97
2019-04-04T11:07:38.827Z,6.70
2019-04-04T11:10:08.682Z,7.60
2019-04-04T11:12:37.981Z,6.77
2019-04-04T11:15:07.289Z,7.60
2019-04-04T11:17:36.575Z,7.37
2019-04-04T11:20:06.922Z,7.50
2019-04-04T11:22:36.230Z,6.50
2019-04-04T11:25:05.849Z,7.07
2019-04-04T11:27:35.147Z,7.17
2019-04-04T11:30:06.855Z,7.80
2019-04-04T11:32:37.214Z,7.23
2019-04-04T11:35:07.350Z,7.10
2019-04-04T11:37:36.694Z,6.43
2019-04-04T11:40:06.859Z,7.20
2019-04-04T11:42:36.144Z,7.20
2019-04-04T11:45:06.792Z,7.70
2019-04-04T11:47:36.326Z,7.17
2019-04-04T11:50:08.479Z,7.10
2019-04-04T11:52:38.739Z,7.23
2019-04-04T11:55:08.135Z,7.20
2019-04-04T11:57:37.419Z,7.57
2019-04-04T12:00:08.356Z,7.07
2019-04-04T12:02:37.626Z,7.67
2019-04-04T12:05:08.394Z,7.67
2019-04-04T12:07:38.520Z,7.47
2019-04-04T12:10:08.725Z,7.07
2019-04-04T12:12:38.019Z,7.80
2019-04-04T12:15:08.679Z,7.63
2019-04-04T12:17:37.969Z,7.90
2019-04-04T12:20:07.706Z,7.50
2019-04-04T12:22:37.028Z,7.90
2019-04-04T12:25:07.071Z,7.53
2019-04-04T12:27:36.373Z,7.33
2019-04-04T12:30:09.688Z,7.30
2019-04-04T12:32:38.981Z,7.50
2019-04-04T12:35:08.548Z,7.33
2019-04-04T12:37:37.839Z,6.87
2019-04-04T12:40:19.980Z,6.40
2019-04-04T12:42:39.068Z,6.80
2019-04-04T12:45:09.010Z,6.97
2019-04-04T12:47:38.293Z,7.17
2019-04-04T12:50:08.025Z,7.33
2019-04-04T12:52:37.386Z,8.47
2019-04-04T12:55:07.530Z,7.50
2019-04-04T12:57:36.915Z,7.60
2019-04-04T13:00:08.731Z,7.67
2019-04-04T13:02:38.017Z,7.83
2019-04-04T13:05:11.316Z,7.43
2019-04-04T13:07:40.686Z,7.07
2019-04-04T13:10:11.637Z,7.87
2019-04-04T13:12:41.533Z,7.43
2019-04-04T13:15:11.701Z,8.07
2019-04-04T13:17:41.077Z,7.40
2019-04-04T13:20:10.713Z,7.20
2019-04-04T13:22:40.062Z,7.33
2019-04-04T13:25:09.590Z,7.50
2019-04-04T13:27:38.880Z,7.63
2019-04-04T13:30:12.182Z,8.37
2019-04-04T13:32:41.474Z,7.23
2019-04-04T13:35:11.105Z,7.30
2019-04-04T13:37:40.390Z,7.13
2019-04-04T13:40:09.932Z,7.57
2019-04-04T13:42:39.209Z,6.80
2019-04-04T13:45:08.802Z,6.70
2019-04-04T13:47:39.992Z,6.53
2019-04-04T13:50:12.428Z,6.60
2019-04-04T13:52:41.302Z,6.33
2019-04-04T13:55:10.618Z,5.90
2019-04-04T13:57:39.921Z,6.43
2019-04-04T14:00:09.949Z,6.80
2019-04-04T14:02:39.257Z,7.70
2019-04-04T14:05:10.793Z,6.80
2019-04-04T14:07:40.110Z,6.60
2019-04-04T14:10:09.858Z,7.37
2019-04-04T14:12:39.168Z,7.77
2019-04-04T14:15:11.966Z,8.07
2019-04-04T14:17:43.820Z,8.90
2019-04-04T14:20:13.498Z,7.70
2019-04-04T14:22:42.812Z,8.60
2019-04-04T14:25:12.098Z,7.97
2019-04-04T14:27:41.393Z,8.03
2019-04-04T14:30:11.229Z,8.53
2019-04-04T14:32:40.524Z,8.13
2019-04-04T14:35:10.262Z,8.07
2019-04-04T14:37:39.602Z,8.83
2019-04-04T14:40:09.225Z,8.57
2019-04-04T14:42:39.549Z,8.67
2019-04-04T14:45:09.061Z,8.90
2019-04-04T14:47:38.356Z,8.40
2019-04-04T14:50:09.540Z,8.13
2019-04-04T14:52:39.576Z,8.23
2019-04-04T14:55:10.320Z,8.90
2019-04-04T14:57:39.672Z,9.23
2019-04-04T15:00:11.079Z,9.23
2019-04-04T15:02:40.396Z,9.27
2019-04-04T15:05:09.831Z,10.20
2019-04-04T15:07:39.177Z,10.70
2019-04-04T15:10:08.913Z,8.70
2019-04-04T15:12:38.218Z,9.03
2019-04-04T15:15:08.569Z,9.37
2019-04-04T15:17:37.886Z,10.17
2019-04-04T15:20:07.753Z,10.37
2019-04-04T15:22:37.065Z,10.93
2019-04-04T15:25:06.503Z,11.40
2019-04-04T15:27:35.820Z,10.80
2019-04-04T15:30:08.132Z,9.80
2019-04-04T15:32:37.438Z,9.67
2019-04-04T15:35:07.413Z,10.10
2019-04-04T15:37:36.793Z,10.57
2019-04-04T15:40:07.745Z,9.83
2019-04-04T15:42:37.058Z,11.00
2019-04-04T15:45:07.506Z,11.00
2019-04-04T15:47:36.923Z,10.57
2019-04-04T15:50:07.604Z,10.57
2019-04-04T15:52:36.909Z,11.20
2019-04-04T15:55:06.369Z,10.50
2019-04-04T15:57:35.648Z,10.53
2019-04-04T16:00:07.161Z,11.17
2019-04-04T16:02:36.531Z,11.50
2019-04-04T16:05:08.183Z,10.80
2019-04-04T16:07:37.557Z,11.07
2019-04-04T16:10:07.453Z,11.17
2019-04-04T16:12:36.767Z,11.80
2019-04-04T16:15:07.358Z,11.43
2019-04-04T16:17:36.681Z,10.83
2019-04-04T16:20:08.105Z,11.27
2019-04-04T16:22:37.410Z,11.30
2019-04-04T16:25:07.859Z,11.60
2019-04-04T16:27:37.153Z,12.13
2019-04-04T16:30:08.327Z,12.07
2019-04-04T16:32:37.701Z,10.70
2019-04-04T16:35:07.159Z,12.47
2019-04-04T16:37:36.455Z,12.20
2019-04-04T16:40:09.582Z,12.47
2019-04-04T16:42:39.098Z,11.47
2019-04-04T16:45:08.549Z,12.00
2019-04-04T16:47:37.911Z,13.27
2019-04-04T16:50:08.269Z,12.10
2019-04-04T16:52:37.581Z,14.07
2019-04-04T16:55:07.945Z,12.50
2019-04-04T16:57:37.252Z,12.13
2019-04-04T17:00:09.565Z,13.20
2019-04-04T17:02:39.839Z,11.93
2019-04-04T17:05:10.922Z,12.90
2019-04-04T17:07:40.214Z,13.03
2019-04-04T17:10:11.166Z,12.77
2019-04-04T17:12:40.506Z,13.13
2019-04-04T17:15:09.903Z,12.73
2019-04-04T17:17:39.214Z,13.13
2019-04-04T17:20:09.845Z,12.90
2019-04-04T17:22:39.146Z,12.40
2019-04-04T17:25:08.822Z,13.70
2019-04-04T17:27:38.126Z,13.47
2019-04-04T17:30:09.340Z,13.00
2019-04-04T17:32:38.836Z,13.63
2019-04-04T17:35:09.631Z,14.07
2019-04-04T17:37:39.150Z,13.17
2019-04-04T17:40:09.347Z,13.63
2019-04-04T17:42:38.771Z,13.70
2019-04-04T17:45:10.357Z,13.40
2019-04-04T17:47:39.878Z,14.37
2019-04-04T17:50:11.995Z,14.17
2019-04-04T17:52:41.417Z,13.73
2019-04-04T17:55:10.976Z,14.43
2019-04-04T17:57:40.269Z,13.67
2019-04-04T18:00:11.685Z,14.77
2019-04-04T18:02:40.991Z,14.77
2019-04-04T18:05:11.758Z,15.40
2019-04-04T18:07:41.129Z,15.23
2019-04-04T18:10:11.044Z,14.90
2019-04-04T18:12:41.007Z,15.43
2019-04-04T18:15:12.184Z,15.33
2019-04-04T18:17:41.509Z,15.60
2019-04-04T18:20:11.272Z,16.27
2019-04-04T18:22:40.600Z,15.90
2019-04-04T18:25:10.250Z,15.00
2019-04-04T18:27:42.418Z,15.37
2019-04-04T18:30:11.772Z,18.43
2019-04-04T18:32:41.081Z,16.33
2019-04-04T18:35:11.646Z,15.53
2019-04-04T18:37:41.583Z,15.10
2019-04-04T18:40:11.527Z,16.23
2019-04-04T18:42:52.548Z,16.87
2019-04-04T18:45:11.979Z,20.67
2019-04-04T18:47:41.286Z,20.93
2019-04-04T18:50:11.889Z,22.93
2019-04-04T18:52:41.225Z,24.13
2019-04-04T18:55:19.739Z,20.23
2019-04-04T18:57:42.645Z,22.43
2019-04-04T19:00:12.491Z,20.13
2019-04-04T19:02:42.158Z,19.67
2019-04-04T19:05:11.921Z,19.90
2019-04-04T19:07:41.234Z,18.47
2019-04-04T19:10:11.277Z,18.63
2019-04-04T19:12:40.579Z,18.53
2019-04-04T19:15:10.253Z,26.00
2019-04-04T19:17:39.553Z,29.10
2019-04-04T19:20:10.409Z,22.43
2019-04-04T19:22:39.936Z,21.03
2019-04-04T19:25:09.639Z,22.73
2019-04-04T19:27:38.939Z,21.77
2019-04-04T19:30:09.274Z,22.47
2019-04-04T19:32:38.742Z,21.80
2019-04-04T19:35:08.491Z,22.03
2019-04-04T19:37:37.820Z,23.77
2019-04-04T19:40:08.005Z,23.40
2019-04-04T19:42:37.377Z,23.47
2019-04-04T19:45:08.316Z,24.70
2019-04-04T19:47:37.786Z,23.57
2019-04-04T19:50:11.118Z,29.30
2019-04-04T19:52:40.436Z,36.23
2019-04-04T19:55:09.941Z,50.63
2019-04-04T19:57:39.295Z,50.27
2019-04-04T20:00:10.215Z,49.93
2019-04-04T20:02:39.598Z,40.23
2019-04-04T20:05:09.835Z,32.40
2019-04-04T20:07:39.150Z,37.10
2019-04-04T20:10:08.802Z,30.77
2019-04-04T20:12:38.093Z,26.67
2019-04-04T20:15:08.030Z,24.50
2019-04-04T20:17:37.334Z,25.80
2019-04-04T20:20:08.000Z,25.07
2019-04-04T20:22:37.336Z,24.77
2019-04-04T20:25:07.289Z,25.67
2019-04-04T20:27:36.693Z,28.10
2019-04-04T20:30:08.693Z,30.10
2019-04-04T20:32:38.010Z,34.47
2019-04-04T20:35:08.083Z,38.80
2019-04-04T20:37:37.506Z,34.10
2019-04-04T20:40:07.267Z,31.50
2019-04-04T20:42:36.541Z,28.57
2019-04-04T20:45:07.092Z,28.03
2019-04-04T20:47:36.387Z,27.17
2019-04-04T20:50:06.842Z,28.40
2019-04-04T20:52:36.215Z,26.77
2019-04-04T20:55:06.294Z,26.83
2019-04-04T20:57:35.661Z,24.77
2019-04-04T21:00:07.086Z,26.77
2019-04-04T21:02:36.750Z,25.80
2019-04-04T21:05:07.509Z,25.20
2019-04-04T21:07:36.885Z,25.20
2019-04-04T21:10:06.558Z,24.73
2019-04-04T21:12:35.854Z,24.53
2019-04-04T21:15:06.528Z,25.20
2019-04-04T21:17:35.838Z,22.90
2019-04-04T21:20:06.754Z,24.00
2019-04-04T21:22:36.055Z,23.07
2019-04-04T21:25:06.385Z,24.87
2019-04-04T21:27:35.686Z,23.23
2019-04-04T21:30:06.817Z,24.00
2019-04-04T21:32:36.144Z,25.80
2019-04-04T21:35:08.577Z,24.67
2019-04-04T21:37:37.871Z,25.90
2019-04-04T21:40:07.326Z,26.77
2019-04-04T21:42:36.621Z,25.10
2019-04-04T21:45:07.370Z,23.70
2019-04-04T21:47:36.677Z,23.53
2019-04-04T21:50:07.308Z,23.57
2019-04-04T21:52:37.149Z,24.30
2019-04-04T21:55:06.608Z,23.80
2019-04-04T21:57:35.895Z,22.53
2019-04-04T22:00:07.046Z,23.33
2019-04-04T22:02:38.018Z,23.43
2019-04-04T22:05:09.390Z,24.67
2019-04-04T22:07:38.697Z,23.43
2019-04-04T22:10:08.522Z,23.27
2019-04-04T22:12:37.862Z,22.57
2019-04-04T22:15:09.009Z,22.47
2019-04-04T22:17:39.928Z,22.83
2019-04-04T22:20:09.533Z,23.00
2019-04-04T22:22:38.848Z,22.77
2019-04-04T22:25:08.774Z,22.03
2019-04-04T22:27:38.100Z,20.47
2019-04-04T22:30:08.238Z,20.90
2019-04-04T22:32:37.542Z,19.43
2019-04-04T22:35:07.106Z,20.53
2019-04-04T22:37:36.394Z,20.77
2019-04-04T22:40:07.544Z,21.17
2019-04-04T22:42:37.148Z,20.70
2019-04-04T22:45:08.273Z,20.77
2019-04-04T22:47:37.593Z,20.10
2019-04-04T22:50:06.950Z,19.17
2019-04-04T22:52:36.279Z,19.67
2019-04-04T22:55:05.618Z,18.67
2019-04-04T22:57:34.922Z,19.30
2019-04-04T23:00:08.558Z,19.17
2019-04-04T23:02:39.477Z,20.13
2019-04-04T23:05:08.937Z,20.37
2019-04-04T23:07:38.238Z,18.70
2019-04-04T23:10:07.963Z,20.50
2019-04-04T23:12:37.434Z,20.30
2019-04-04T23:15:09.947Z,18.60
2019-04-04T23:17:39.251Z,20.00
2019-04-04T23:20:09.389Z,19.73
2019-04-04T23:22:46.954Z,18.13
2019-04-04T23:25:10.860Z,19.33
2019-04-04T23:27:40.175Z,18.70
2019-04-04T23:30:09.793Z,18.70
2019-04-04T23:32:39.430Z,17.33
2019-04-04T23:35:08.800Z,16.67
2019-04-04T23:37:38.093Z,16.93
2019-04-04T23:40:07.930Z,16.83
2019-04-04T23:42:37.250Z,17.07
2019-04-04T23:45:08.155Z,17.80
2019-04-04T23:47:43.098Z,17.50
2019-04-04T23:50:08.518Z,17.10
2019-04-04T23:52:37.839Z,16.23
2019-04-04T23:55:07.272Z,17.47
2019-04-04T23:57:36.653Z,18.03
